Time;durP1;ratioP1;P1;durP2;ratioP2;P2;SDS_P1;SDS_P2;PMS_P1;PMS_P2;Temp;Humidity;BMP_temperature;BMP_pressure;BME280_temperature;BME280_humidity;BME280_pressure;Samples;Min_cycle;Max_cycle;Signal;HPM_P1;HPM_P2
2023/07/20 00:01:27;;;;;;;9.13;2.00;;;;;;;17.21;100.00;100559.31;5050592;28;20461;-71
2023/07/20 00:03:55;;;;;;;7.73;2.30;;;;;;;17.13;100.00;100552.81;5051571;28;20480;-71
2023/07/20 00:06:22;;;;;;;6.37;2.47;;;;;;;17.13;100.00;100564.59;5052666;28;20492;-71
2023/07/20 00:08:49;;;;;;;9.40;2.87;;;;;;;17.09;100.00;100562.88;5052261;28;20450;-71
2023/07/20 00:11:15;;;;;;;10.43;3.10;;;;;;;17.08;100.00;100553.84;5049248;28;20473;-71
2023/07/20 00:13:43;;;;;;;6.17;2.20;;;;;;;17.02;100.00;100560.72;5052767;28;20599;-71
2023/07/20 00:16:10;;;;;;;6.10;1.90;;;;;;;17.03;100.00;100561.50;5056813;28;20492;-70
2023/07/20 00:18:37;;;;;;;7.93;2.90;;;;;;;17.07;100.00;100565.16;5056336;28;20493;-71
2023/07/20 00:21:03;;;;;;;6.67;2.43;;;;;;;16.99;100.00;100563.34;5053737;28;20462;-71
2023/07/20 00:23:30;;;;;;;6.50;2.30;;;;;;;16.94;100.00;100560.84;5056524;28;20493;-71
2023/07/20 00:25:57;;;;;;;7.70;2.53;;;;;;;16.94;100.00;100560.84;5056356;28;20523;-71
2023/07/20 00:28:23;;;;;;;8.93;2.70;;;;;;;16.94;100.00;100571.78;5053948;28;20548;-71
2023/07/20 00:30:51;;;;;;;7.10;2.43;;;;;;;16.90;100.00;100568.94;5056446;28;20442;-71
2023/07/20 00:33:18;;;;;;;7.20;2.50;;;;;;;16.85;100.00;100567.25;5056090;28;20486;-71
2023/07/20 00:35:46;;;;;;;6.60;2.50;;;;;;;16.83;100.00;100577.75;5055873;28;20501;-71
2023/07/20 00:38:12;;;;;;;8.30;2.30;;;;;;;16.78;100.00;100569.78;5078017;22;20525;-65
2023/07/20 00:40:40;;;;;;;8.20;2.80;;;;;;;16.69;100.00;100570.97;5055249;28;20891;-65
2023/07/20 00:43:06;;;;;;;6.10;1.77;;;;;;;16.68;100.00;100566.66;5056082;28;20446;-66
2023/07/20 00:45:34;;;;;;;6.67;2.40;;;;;;;16.60;100.00;100565.63;5056775;28;20449;-66
2023/07/20 00:48:04;;;;;;;7.80;2.67;;;;;;;16.59;100.00;100566.75;5048108;28;20530;-66
2023/07/20 00:50:32;;;;;;;6.83;2.10;;;;;;;16.57;100.00;100571.78;5055363;28;20468;-67
2023/07/20 00:52:59;;;;;;;6.60;2.23;;;;;;;16.54;100.00;100580.66;5056035;28;20577;-66
2023/07/20 00:55:26;;;;;;;6.90;2.33;;;;;;;16.48;100.00;100571.91;5054866;28;20458;-66
2023/07/20 00:57:53;;;;;;;6.70;2.27;;;;;;;16.48;100.00;100576.56;5055341;28;20489;-67
2023/07/20 01:00:20;;;;;;;7.00;2.43;;;;;;;16.47;100.00;100566.75;5055812;28;20508;-67
2023/07/20 01:02:47;;;;;;;6.33;1.80;;;;;;;16.48;100.00;100568.38;5055908;28;20442;-67
2023/07/20 01:05:17;;;;;;;8.13;2.80;;;;;;;16.55;100.00;100582.25;5053814;28;20473;-66
2023/07/20 01:07:51;;;;;;;9.23;2.70;;;;;;;16.54;100.00;100577.94;5055749;28;20445;-66
2023/07/20 01:10:24;;;;;;;6.93;2.33;;;;;;;16.56;100.00;100573.75;5054015;28;20480;-67
2023/07/20 01:12:53;;;;;;;7.20;2.73;;;;;;;16.56;100.00;100572.94;5052471;28;20542;-68
2023/07/20 01:15:20;;;;;;;6.37;2.40;;;;;;;16.53;100.00;100577.16;5053167;28;20494;-68
2023/07/20 01:17:47;;;;;;;6.03;2.13;;;;;;;16.50;100.00;100579.75;5055293;28;20450;-66
2023/07/20 01:20:18;;;;;;;6.60;2.53;;;;;;;16.50;100.00;100577.81;5053795;28;20466;-68
2023/07/20 01:23:15;;;;;;;6.90;2.50;;;;;;;16.39;100.00;100569.28;5047908;28;20458;-67
2023/07/20 01:26:09;;;;;;;8.07;3.10;;;;;;;16.34;100.00;100563.25;5046972;28;20945;-67
2023/07/20 01:29:09;;;;;;;6.27;2.20;;;;;;;16.31;100.00;100558.44;5045824;28;20488;-67
2023/07/20 01:31:39;;;;;;;8.57;2.73;;;;;;;16.29;100.00;100561.53;5048474;28;20839;-67
2023/07/20 01:34:09;;;;;;;9.20;2.60;;;;;;;16.28;100.00;100567.31;5062072;28;20554;-66
2023/07/20 01:36:38;;;;;;;8.30;3.17;;;;;;;16.28;100.00;100568.13;5075353;28;20501;-66
2023/07/20 01:39:07;;;;;;;7.73;2.80;;;;;;;16.30;100.00;100567.78;5074951;28;20552;-66
2023/07/20 01:41:34;;;;;;;7.40;2.60;;;;;;;16.33;100.00;100570.63;5057888;28;20967;-65
2023/07/20 01:44:02;;;;;;;9.17;3.03;;;;;;;16.33;100.00;100562.41;5054991;28;20477;-66
2023/07/20 01:46:28;;;;;;;6.77;2.87;;;;;;;16.25;100.00;100563.34;5063823;28;20449;-66
2023/07/20 01:48:57;;;;;;;7.40;2.60;;;;;;;16.23;100.00;100557.41;5074952;28;20467;-66
2023/07/20 01:51:24;;;;;;;9.47;3.30;;;;;;;16.26;100.00;100569.59;5058935;28;20508;-66
2023/07/20 01:53:50;;;;;;;7.87;2.90;;;;;;;16.32;100.00;100569.03;5054737;28;20489;-67
2023/07/20 01:56:17;;;;;;;8.07;3.50;;;;;;;16.35;100.00;100562.88;5054990;28;20879;-66
2023/07/20 01:58:44;;;;;;;6.60;2.63;;;;;;;16.34;100.00;100571.44;5054819;28;20557;-66
2023/07/20 02:01:10;;;;;;;5.90;2.33;;;;;;;16.33;100.00;100578.81;5052540;28;20470;-67
2023/07/20 02:03:37;;;;;;;7.23;2.90;;;;;;;16.26;100.00;100570.41;5034701;28;20463;-66
2023/07/20 02:06:05;;;;;;;6.57;2.20;;;;;;;16.31;100.00;100570.19;5034700;28;20975;-66
2023/07/20 02:08:32;;;;;;;9.20;3.47;;;;;;;16.35;100.00;100573.03;5047084;28;20474;-68
2023/07/20 02:10:58;;;;;;;9.43;3.67;;;;;;;16.33;100.00;100569.81;5053058;28;20516;-68
2023/07/20 02:13:25;;;;;;;7.33;3.13;;;;;;;16.33;100.00;100573.34;5051992;28;20494;-66
2023/07/20 02:15:51;;;;;;;9.10;3.50;;;;;;;16.36;100.00;100577.34;5054570;28;20529;-66
2023/07/20 02:18:18;;;;;;;6.70;2.43;;;;;;;16.32;100.00;100570.97;5054678;28;20462;-67
2023/07/20 02:20:45;;;;;;;7.90;2.80;;;;;;;16.31;100.00;100572.91;5052862;28;20540;-68
2023/07/20 02:23:13;;;;;;;7.60;2.87;;;;;;;16.34;100.00;100574.97;5063935;28;20457;-66
2023/07/20 02:25:39;;;;;;;7.20;2.77;;;;;;;16.35;100.00;100568.34;5055366;28;20490;-67
2023/07/20 02:28:08;;;;;;;6.80;2.63;;;;;;;16.37;100.00;100571.53;5053012;28;20481;-66
2023/07/20 02:30:34;;;;;;;7.87;3.20;;;;;;;16.36;100.00;100575.41;5053322;28;20471;-66
2023/07/20 02:33:01;;;;;;;8.57;3.60;;;;;;;16.36;100.00;100580.88;5054021;28;20452;-66
2023/07/20 02:35:28;;;;;;;8.53;3.50;;;;;;;16.39;100.00;100580.22;5054574;28;20504;-67
2023/07/20 02:37:54;;;;;;;8.07;3.20;;;;;;;16.42;100.00;100578.72;5051900;28;20546;-67
2023/07/20 02:40:22;;;;;;;7.40;3.13;;;;;;;16.50;100.00;100585.22;5054460;28;20455;-67
2023/07/20 02:42:49;;;;;;;7.50;2.80;;;;;;;16.54;100.00;100583.41;5053954;28;20920;-67
2023/07/20 02:45:17;;;;;;;8.73;3.90;;;;;;;16.53;100.00;100574.41;5054327;28;20430;-66
2023/07/20 02:47:44;;;;;;;7.80;3.43;;;;;;;16.53;100.00;100584.56;5051691;28;20494;-66
2023/07/20 02:50:13;;;;;;;6.43;2.70;;;;;;;16.54;100.00;100583.41;5050047;28;20873;-68
2023/07/20 02:52:40;;;;;;;6.83;2.90;;;;;;;16.51;100.00;100584.91;5053857;28;20977;-67
2023/07/20 02:55:07;;;;;;;8.23;3.97;;;;;;;16.45;100.00;100590.91;5054025;28;20573;-66
2023/07/20 02:57:35;;;;;;;9.70;3.13;;;;;;;16.38;100.00;100589.56;5051677;28;20556;-68
2023/07/20 03:00:03;;;;;;;10.27;4.00;;;;;;;16.44;100.00;100587.38;5053822;28;20470;-67
2023/07/20 03:02:31;;;;;;;14.60;4.30;;;;;;;16.45;100.00;100585.44;5054038;28;20851;-67
2023/07/20 03:05:00;;;;;;;8.47;3.70;;;;;;;16.44;100.00;100592.06;5053603;28;20478;-66
2023/07/20 03:07:28;;;;;;;8.93;4.40;;;;;;;16.40;100.00;100587.28;5052145;28;20837;-67
2023/07/20 03:09:55;;;;;;;7.23;3.20;;;;;;;16.40;100.00;100587.28;5051845;28;20482;-68
2023/07/20 03:12:22;;;;;;;9.93;3.97;;;;;;;16.36;100.00;100591.81;5052458;28;20462;-67
2023/07/20 03:14:50;;;;;;;11.47;4.60;;;;;;;16.32;100.00;100596.38;5052678;28;20489;-68
2023/07/20 03:17:17;;;;;;;9.40;3.80;;;;;;;16.35;100.00;100589.44;5053616;28;20478;-67
2023/07/20 03:19:43;;;;;;;8.00;3.27;;;;;;;16.23;100.00;100595.66;5053747;28;20489;-69
2023/07/20 03:22:10;;;;;;;11.37;3.97;;;;;;;16.15;100.00;100599.28;5053422;28;20442;-67
2023/07/20 03:24:36;;;;;;;9.23;4.53;;;;;;;16.15;100.00;100596.56;5053663;28;20959;-67
2023/07/20 03:27:03;;;;;;;8.57;3.80;;;;;;;16.12;100.00;100595.31;5052027;28;20553;-67
2023/07/20 03:29:32;;;;;;;11.37;4.73;;;;;;;16.08;100.00;100593.59;5053231;28;20516;-67
2023/07/20 03:32:00;;;;;;;9.27;3.83;;;;;;;16.12;100.00;100605.44;5053582;28;20506;-67
2023/07/20 03:34:26;;;;;;;8.77;3.43;;;;;;;16.12;100.00;100603.50;5052407;28;20486;-68
2023/07/20 03:36:53;;;;;;;10.63;4.77;;;;;;;16.04;100.00;100603.59;5051333;28;20497;-67
2023/07/20 03:39:20;;;;;;;8.47;4.30;;;;;;;16.03;100.00;100604.75;5052771;28;20561;-67
2023/07/20 03:41:46;;;;;;;8.80;4.10;;;;;;;15.99;100.00;100614.75;5053226;28;20442;-67
2023/07/20 03:44:13;;;;;;;8.80;4.00;;;;;;;16.07;100.00;100619.31;5051804;28;20478;-68
2023/07/20 03:46:39;;;;;;;8.70;3.40;;;;;;;16.02;100.00;100614.84;5058004;28;20468;-67
2023/07/20 03:49:08;;;;;;;10.57;4.37;;;;;;;16.06;100.00;100614.97;5055109;28;20483;-67
2023/07/20 03:51:35;;;;;;;8.70;3.33;;;;;;;16.12;100.00;100616.38;5052946;28;20449;-66
2023/07/20 03:54:02;;;;;;;10.83;4.60;;;;;;;16.12;100.00;100627.31;5050626;28;20489;-68
2023/07/20 03:56:28;;;;;;;13.40;4.63;;;;;;;16.21;100.00;100617.09;5048980;28;20557;-68
2023/07/20 03:58:55;;;;;;;9.97;3.90;;;;;;;16.32;100.00;100626.44;5051812;28;21054;-67
2023/07/20 04:01:21;;;;;;;12.57;4.57;;;;;;;16.31;100.00;100635.78;5052270;28;20545;-66
2023/07/20 04:03:48;;;;;;;9.90;4.77;;;;;;;16.25;100.00;100626.22;5052653;28;20561;-67
2023/07/20 04:06:17;;;;;;;11.27;4.63;;;;;;;16.26;100.00;100625.06;5052851;28;20481;-67
2023/07/20 04:08:44;;;;;;;9.73;3.90;;;;;;;16.25;100.00;100631.69;5052915;28;20474;-66
2023/07/20 04:11:10;;;;;;;10.57;4.97;;;;;;;16.33;100.00;100628.03;5053261;28;20884;-67
2023/07/20 04:13:37;;;;;;;8.40;4.00;;;;;;;16.36;100.00;100621.88;5050586;28;20519;-67
2023/07/20 04:16:04;;;;;;;8.87;3.60;;;;;;;16.34;100.00;100615.97;5058253;28;20456;-66
2023/07/20 04:18:31;;;;;;;11.70;4.10;;;;;;;16.39;100.00;100620.44;5073010;28;20500;-66
2023/07/20 04:20:57;;;;;;;8.83;4.40;;;;;;;16.46;100.00;100622.59;5073130;28;20879;-66
2023/07/20 04:23:25;;;;;;;8.10;3.57;;;;;;;16.46;100.00;100628.84;5053300;28;20494;-68
2023/07/20 04:25:52;;;;;;;9.30;4.10;;;;;;;16.50;100.00;100623.50;5052574;28;20526;-65
2023/07/20 04:28:18;;;;;;;8.53;3.87;;;;;;;16.45;100.00;100621.00;5052477;28;20901;-64
2023/07/20 04:30:45;;;;;;;11.90;4.70;;;;;;;16.44;100.00;100628.41;5051342;28;20498;-64
2023/07/20 04:33:12;;;;;;;8.67;4.20;;;;;;;16.52;100.00;100627.50;5052827;28;20477;-64
2023/07/20 04:35:52;;;;;;;11.47;5.40;;;;;;;16.57;100.00;100637.44;5052980;28;20485;-65
2023/07/20 04:38:19;;;;;;;10.37;4.27;;;;;;;16.52;100.00;100630.25;5052476;28;20476;-65
2023/07/20 04:40:48;;;;;;;8.90;4.30;;;;;;;16.55;100.00;100637.75;5050230;28;21019;-65
2023/07/20 04:43:15;;;;;;;9.73;3.87;;;;;;;16.45;100.00;100627.25;5052706;28;20470;-65
2023/07/20 04:45:42;;;;;;;10.27;3.97;;;;;;;16.49;100.00;100638.31;5052350;28;20482;-65
2023/07/20 04:48:12;;;;;;;11.60;4.40;;;;;;;16.52;100.00;100637.66;5052260;28;20975;-65
2023/07/20 04:50:39;;;;;;;8.30;3.63;;;;;;;16.51;100.00;100638.78;5050452;28;20458;-65
2023/07/20 04:53:05;;;;;;;15.70;5.17;;;;;;;16.47;100.00;100635.94;5061555;28;20974;-65
2023/07/20 04:55:33;;;;;;;9.47;3.90;;;;;;;16.49;100.00;100633.66;5072561;28;20481;-65
2023/07/20 04:58:01;;;;;;;12.03;4.10;;;;;;;16.57;100.00;100631.97;5067563;28;20450;-65
2023/07/20 05:00:28;;;;;;;8.17;2.70;;;;;;;16.53;100.00;100641.97;5055913;28;20520;-65
2023/07/20 05:02:54;;;;;;;14.63;5.60;;;;;;;16.63;100.00;100639.59;5056145;28;20529;-65
2023/07/20 05:05:21;;;;;;;9.47;4.33;;;;;;;16.66;100.00;100640.84;5056180;28;20442;-65
2023/07/20 05:07:48;;;;;;;13.67;4.40;;;;;;;16.64;100.00;100651.31;5051279;28;20466;-65
2023/07/20 05:10:14;;;;;;;8.63;3.37;;;;;;;16.65;100.00;100653.72;5055447;28;20489;-65
2023/07/20 05:12:41;;;;;;;8.80;3.80;;;;;;;16.66;100.00;100651.78;5055025;28;20468;-66
2023/07/20 05:15:10;;;;;;;10.77;3.33;;;;;;;16.62;100.00;100648.13;5054783;28;20560;-65
2023/07/20 05:17:37;;;;;;;7.43;3.47;;;;;;;16.62;100.00;100648.13;5055821;28;20528;-66
2023/07/20 05:20:05;;;;;;;10.57;3.77;;;;;;;16.69;100.00;100648.38;5053342;28;21003;-66
2023/07/20 05:22:31;;;;;;;9.03;3.80;;;;;;;16.67;100.00;100638.91;5052669;28;20481;-66
2023/07/20 05:24:58;;;;;;;7.60;3.40;;;;;;;16.58;100.00;100639.81;5055396;28;20470;-65
2023/07/20 05:27:24;;;;;;;10.83;4.30;;;;;;;16.68;100.00;100646.78;5054810;28;20453;-65
2023/07/20 05:29:51;;;;;;;10.20;3.57;;;;;;;16.75;100.00;100649.78;5054430;28;20480;-65
2023/07/20 05:32:19;;;;;;;9.60;3.90;;;;;;;16.89;100.00;100652.97;5046997;28;20498;-65
2023/07/20 05:34:46;;;;;;;9.67;4.60;;;;;;;17.03;100.00;100657.31;5037764;28;20597;-64
2023/07/20 05:37:13;;;;;;;9.93;4.37;;;;;;;17.06;100.00;100656.63;5060616;28;20486;-65
2023/07/20 05:39:39;;;;;;;10.70;4.00;;;;;;;17.10;100.00;100660.28;5072906;28;20991;-66
2023/07/20 05:42:06;;;;;;;11.20;4.73;;;;;;;17.16;100.00;100656.16;5053214;28;20959;-65
2023/07/20 05:44:33;;;;;;;12.80;4.97;;;;;;;17.20;100.00;100657.06;5055336;28;20940;-66
2023/07/20 05:46:59;;;;;;;8.93;3.83;;;;;;;17.23;100.00;100652.84;5055643;28;20470;-65
2023/07/20 05:49:28;;;;;;;8.17;3.70;;;;;;;17.30;100.00;100659.31;5055430;28;20502;-68
2023/07/20 05:51:55;;;;;;;9.27;3.60;;;;;;;17.44;100.00;100669.13;5053329;28;20462;-66
2023/07/20 05:54:28;;;;;;;9.80;4.13;;;;;;;17.46;100.00;100669.59;5055850;28;20944;-69
2023/07/20 05:56:55;;;;;;;10.37;4.67;;;;;;;17.43;100.00;100676.53;5055072;28;20446;-66
2023/07/20 05:59:23;;;;;;;9.83;4.40;;;;;;;17.39;100.00;100668.22;5055022;28;20454;-67
2023/07/20 06:01:50;;;;;;;10.23;3.37;;;;;;;17.35;100.00;100675.53;5053353;28;20466;-68
2023/07/20 06:04:17;;;;;;;7.70;3.10;;;;;;;17.19;100.00;100671.09;5067839;28;20462;-69
2023/07/20 06:06:45;;;;;;;9.33;3.70;;;;;;;17.15;100.00;100677.25;5061707;28;20499;-69
2023/07/20 06:09:12;;;;;;;7.93;2.80;;;;;;;17.13;100.00;100678.72;5059950;28;20581;-68
2023/07/20 06:11:39;;;;;;;8.33;2.60;;;;;;;17.15;100.00;100676.47;5049320;28;20944;-69
2023/07/20 06:14:06;;;;;;;9.53;2.97;;;;;;;17.21;100.00;100679.75;5052582;28;20467;-68
2023/07/20 06:16:32;;;;;;;10.30;3.10;;;;;;;17.33;100.00;100679.75;5052381;28;21011;-69
2023/07/20 06:19:01;;;;;;;8.53;3.60;;;;;;;17.38;100.00;100679.50;5052475;28;20971;-69
2023/07/20 06:21:27;;;;;;;7.30;2.73;;;;;;;17.41;100.00;100687.06;5053005;28;20959;-68
2023/07/20 06:23:55;;;;;;;9.50;3.07;;;;;;;17.33;100.00;100686.03;5051847;28;20959;-69
2023/07/20 06:26:22;;;;;;;7.43;2.57;;;;;;;17.32;100.00;100684.44;5045548;28;20465;-68
2023/07/20 06:28:48;;;;;;;7.53;2.30;;;;;;;17.27;100.00;100684.69;5050897;28;20513;-70
2023/07/20 06:31:15;;;;;;;6.77;2.13;;;;;;;17.38;100.00;100685.00;5046204;28;20457;-69
2023/07/20 06:33:41;;;;;;;6.43;2.40;;;;;;;17.49;100.00;100688.06;5053139;28;20497;-69
2023/07/20 06:36:08;;;;;;;6.40;2.17;;;;;;;17.63;100.00;100683.81;5052829;28;20484;-68
2023/07/20 06:38:35;;;;;;;6.70;2.13;;;;;;;17.66;95.21;100690.53;5052100;28;20949;-69
2023/07/20 06:43:29;;;;;;;5.83;1.63;;;;;;;17.54;93.55;100687.84;5081647;22;20838;-80
2023/07/20 06:46:46;;;;;;;5.20;1.40;;;;;;;17.44;93.86;100694.56;5080089;28;20526;-80
2023/07/20 06:49:26;;;;;;;7.07;1.80;;;;;;;17.26;95.23;100690.47;5080202;28;20517;-79
2023/07/20 06:55:33;;;;;;;5.30;1.20;;;;;;;17.34;94.29;100689.56;5011102;28;20520;-81
2023/07/20 07:01:12;;;;;;;5.07;1.10;;;;;;;17.58;94.19;100683.25;5012459;28;20462;-78
2023/07/20 07:04:01;;;;;;;5.73;1.50;;;;;;;17.88;94.92;100683.75;5016540;28;20444;-80
2023/07/20 07:06:30;;;;;;;5.47;1.40;;;;;;;17.97;92.02;100676.19;5020542;28;20499;-79
2023/07/20 07:08:58;;;;;;;5.73;1.30;;;;;;;18.18;90.81;100695.19;5059115;22;20494;-78
2023/07/20 07:11:27;;;;;;;5.10;1.10;;;;;;;18.25;88.55;100692.66;5052977;28;20549;-78
2023/07/20 07:13:54;;;;;;;4.80;0.93;;;;;;;18.23;85.42;100702.34;5052200;28;20485;-79
2023/07/20 07:16:23;;;;;;;4.63;0.97;;;;;;;18.14;83.96;100699.75;5055541;28;20529;-78
2023/07/20 07:19:01;;;;;;;8.30;1.23;;;;;;;18.00;85.48;100696.63;5057983;28;20517;-79
2023/07/20 07:21:28;;;;;;;5.20;0.90;;;;;;;18.14;87.17;100700.56;5060728;22;20905;-81
2023/07/20 07:23:57;;;;;;;4.73;0.90;;;;;;;18.23;86.64;100702.34;5057020;28;20470;-82
2023/07/20 07:26:23;;;;;;;6.03;1.20;;;;;;;18.32;85.96;100705.75;5057683;28;20452;-80
2023/07/20 07:28:50;;;;;;;5.07;1.00;;;;;;;18.40;85.98;100699.31;5051745;28;20454;-81
2023/07/20 07:31:17;;;;;;;5.03;1.40;;;;;;;18.56;87.02;100696.59;5044924;28;20485;-80
2023/07/20 07:33:45;;;;;;;4.60;0.97;;;;;;;18.66;86.87;100699.59;5019360;28;20464;-80
2023/07/20 07:36:11;;;;;;;4.80;0.90;;;;;;;18.76;80.72;100703.78;5033521;28;20980;-81
2023/07/20 07:38:38;;;;;;;4.33;0.70;;;;;;;18.85;81.99;100696.19;5034431;28;20486;-80
2023/07/20 07:41:05;;;;;;;4.83;0.77;;;;;;;18.90;81.28;100703.34;5027813;28;20476;-79
2023/07/20 07:43:31;;;;;;;4.73;1.03;;;;;;;19.11;79.86;100708.56;5027436;28;21019;-80
2023/07/20 07:45:58;;;;;;;5.20;1.10;;;;;;;19.07;77.12;100703.00;5031421;28;20543;-82
2023/07/20 07:48:25;;;;;;;5.00;0.77;;;;;;;19.18;76.84;100700.53;5033589;28;20495;-82
2023/07/20 07:50:54;;;;;;;4.73;0.73;;;;;;;19.28;78.80;100712.91;5031308;28;20481;-82
2023/07/20 07:53:21;;;;;;;4.67;0.80;;;;;;;19.44;76.41;100716.44;5037506;28;20538;-81
2023/07/20 07:55:48;;;;;;;4.43;0.70;;;;;;;19.40;76.53;100710.84;5031073;28;20491;-81
2023/07/20 07:58:15;;;;;;;4.27;0.60;;;;;;;19.46;77.58;100708.63;5033497;28;20452;-81
2023/07/20 08:00:43;;;;;;;4.30;0.57;;;;;;;19.43;75.59;100714.81;5029135;28;20536;-81
2023/07/20 08:03:09;;;;;;;4.40;0.60;;;;;;;19.52;74.74;100717.38;5032361;28;20536;-81
2023/07/20 08:05:36;;;;;;;4.50;0.60;;;;;;;19.54;75.14;100713.13;5035260;28;20979;-81
2023/07/20 08:08:04;;;;;;;4.30;0.57;;;;;;;19.56;73.80;100718.25;5037521;28;20454;-82
2023/07/20 08:10:31;;;;;;;4.43;0.73;;;;;;;19.71;75.11;100722.16;5036287;28;20841;-81
2023/07/20 08:12:58;;;;;;;4.77;0.90;;;;;;;19.71;75.49;100727.66;5032195;28;20499;-80
2023/07/20 08:15:24;;;;;;;4.30;0.60;;;;;;;19.78;74.36;100725.03;5030050;28;20515;-81
2023/07/20 08:17:52;;;;;;;4.67;0.80;;;;;;;19.74;74.49;100730.44;5020339;28;20550;-82
2023/07/20 08:20:19;;;;;;;4.10;0.50;;;;;;;19.76;72.84;100733.66;5035258;28;20830;-82
2023/07/20 08:22:45;;;;;;;4.17;0.60;;;;;;;19.76;72.72;100727.38;5023916;28;21028;-83
2023/07/20 08:25:13;;;;;;;4.33;0.60;;;;;;;19.68;73.65;100734.66;5030974;28;20447;-83
2023/07/20 08:27:40;;;;;;;4.17;0.67;;;;;;;19.53;73.02;100735.47;5029367;28;20552;-82
2023/07/20 08:30:09;;;;;;;4.23;0.70;;;;;;;19.56;73.34;100731.97;5028575;28;20471;-83
2023/07/20 08:32:35;;;;;;;4.93;0.60;;;;;;;19.38;70.94;100729.63;5035149;28;20455;-82
2023/07/20 08:35:02;;;;;;;4.23;0.63;;;;;;;19.52;71.55;100736.59;5034523;28;20463;-81
2023/07/20 08:37:29;;;;;;;4.20;0.70;;;;;;;19.62;72.09;100730.59;5039971;28;20534;-80
2023/07/20 08:39:55;;;;;;;6.97;0.93;;;;;;;19.64;71.31;100728.28;5025422;28;20468;-83
2023/07/20 08:42:24;;;;;;;4.20;0.60;;;;;;;19.62;70.77;100734.16;5022453;28;20495;-83
2023/07/20 08:44:52;;;;;;;4.07;0.50;;;;;;;19.82;71.84;100734.16;5031625;28;20538;-79
2023/07/20 08:47:21;;;;;;;4.20;0.57;;;;;;;19.86;71.71;100735.03;5039172;28;20463;-82
2023/07/20 08:49:49;;;;;;;4.10;0.60;;;;;;;20.01;67.93;100734.19;5033963;28;20502;-82
2023/07/20 08:52:16;;;;;;;4.10;0.53;;;;;;;20.11;68.04;100730.88;5033583;28;20470;-80
2023/07/20 08:54:43;;;;;;;4.40;0.50;;;;;;;20.33;68.05;100731.28;5034146;28;20458;-82
2023/07/20 08:57:14;;;;;;;4.27;0.50;;;;;;;20.47;68.89;100728.00;5035200;28;20536;-81
2023/07/20 08:59:43;;;;;;;4.87;0.60;;;;;;;20.49;65.35;100743.00;5029717;28;20469;-82
2023/07/20 09:02:17;;;;;;;7.07;1.13;;;;;;;20.49;66.16;100729.25;5040838;28;20572;-81
2023/07/20 09:04:45;;;;;;;7.30;0.90;;;;;;;20.57;65.70;100728.22;5053100;28;20959;-83
2023/07/20 09:07:14;;;;;;;4.30;0.60;;;;;;;20.47;65.79;100728.00;5039621;28;20505;-82
2023/07/20 09:09:42;;;;;;;4.20;0.70;;;;;;;20.40;66.19;100723.94;5035539;28;20858;-81
2023/07/20 09:12:14;;;;;;;4.13;0.53;;;;;;;20.52;65.22;100727.75;5037771;28;20483;-79
2023/07/20 09:14:43;;;;;;;7.43;1.20;;;;;;;20.61;64.60;100733.81;5022480;28;20542;-83
2023/07/20 09:17:14;;;;;;;4.20;0.70;;;;;;;20.56;63.09;100732.16;5035521;28;21045;-78
2023/07/20 09:19:47;;;;;;;4.10;0.50;;;;;;;20.32;64.03;100729.66;5036641;28;20983;-80
2023/07/20 09:22:13;;;;;;;4.40;0.73;;;;;;;20.18;65.64;100743.94;5033034;28;20575;-79
2023/07/20 09:24:41;;;;;;;4.13;0.60;;;;;;;19.97;67.30;100741.56;5037273;28;20455;-80
2023/07/20 09:27:09;;;;;;;4.10;0.57;;;;;;;19.77;70.55;100738.00;5023871;28;20468;-81
2023/07/20 09:29:36;;;;;;;4.40;0.70;;;;;;;19.51;72.85;100743.25;5040445;28;20451;-82
2023/07/20 09:32:05;;;;;;;4.10;0.60;;;;;;;19.19;75.97;100743.31;5041527;28;20922;-82
2023/07/20 09:34:32;;;;;;;4.30;0.60;;;;;;;18.77;80.95;100748.50;5039283;28;20602;-82
2023/07/20 09:37:00;;;;;;;4.97;0.77;;;;;;;18.43;82.81;100755.41;5027252;28;20953;-82
2023/07/20 09:39:27;;;;;;;4.10;0.60;;;;;;;18.10;84.47;100759.97;5027586;28;20475;-80
2023/07/20 09:41:53;;;;;;;5.77;0.80;;;;;;;18.02;85.35;100752.72;5034527;28;21380;-81
2023/07/20 09:44:20;;;;;;;4.17;0.57;;;;;;;17.96;86.54;100754.09;5038084;28;20491;-81
2023/07/20 09:46:48;;;;;;;4.43;0.90;;;;;;;17.99;85.41;100758.88;5029127;28;20491;-82
2023/07/20 09:49:18;;;;;;;4.50;0.80;;;;;;;18.01;84.66;100758.53;5020407;28;20436;-80
2023/07/20 09:51:45;;;;;;;4.90;0.80;;;;;;;17.96;86.14;100750.53;5018909;28;20895;-80
2023/07/20 09:54:14;;;;;;;4.20;0.70;;;;;;;18.06;86.97;100758.28;5037472;28;20455;-80
2023/07/20 09:56:41;;;;;;;4.80;1.10;;;;;;;18.14;85.42;100755.41;5030731;28;20593;-81
2023/07/20 09:59:08;;;;;;;5.43;0.80;;;;;;;18.27;82.08;100764.38;5037564;28;20479;-81
2023/07/20 10:01:35;;;;;;;4.43;0.70;;;;;;;18.27;81.10;100758.91;5032073;28;20889;-80
2023/07/20 10:04:04;;;;;;;4.50;0.70;;;;;;;18.32;80.14;100763.34;5038094;28;21003;-80
2023/07/20 10:06:34;;;;;;;4.13;0.50;;;;;;;18.39;80.48;100758.06;5036747;28;20466;-80
2023/07/20 10:09:03;;;;;;;4.40;0.73;;;;;;;18.45;80.47;100758.59;5035915;28;20447;-78
2023/07/20 10:11:32;;;;;;;4.40;0.60;;;;;;;18.54;79.23;100764.72;5031069;28;20479;-80
2023/07/20 10:14:00;;;;;;;4.30;0.63;;;;;;;18.63;77.53;100768.09;5019372;28;20869;-79
2023/07/20 10:16:30;;;;;;;4.20;0.60;;;;;;;18.77;78.15;100768.53;5032548;28;20531;-80
2023/07/20 10:19:06;;;;;;;5.00;0.97;;;;;;;18.89;77.27;100771.19;5018989;28;20946;-80
2023/07/20 10:21:36;;;;;;;4.50;0.90;;;;;;;18.89;76.51;100757.47;5035064;28;20486;-79
2023/07/20 10:24:04;;;;;;;4.10;0.63;;;;;;;18.95;77.71;100759.94;5027721;28;20961;-81
2023/07/20 10:26:31;;;;;;;4.10;0.53;;;;;;;19.00;78.22;100762.44;5019810;28;20507;-81
2023/07/20 10:28:58;;;;;;;4.50;0.73;;;;;;;19.10;77.89;100764.66;5019750;28;20514;-80
2023/07/20 10:31:28;;;;;;;4.30;0.70;;;;;;;19.35;75.65;100757.81;5038025;28;20482;-80
2023/07/20 10:33:57;;;;;;;5.80;0.80;;;;;;;19.61;72.89;100759.22;5030049;28;20539;-80
2023/07/20 10:36:27;;;;;;;4.23;0.60;;;;;;;19.75;71.75;100769.75;5033454;28;20858;-81
2023/07/20 10:38:57;;;;;;;5.03;0.80;;;;;;;19.74;71.77;100762.66;5037914;28;20513;-79
2023/07/20 10:41:29;;;;;;;5.20;0.80;;;;;;;19.72;72.64;100765.75;5036847;28;20463;-81
2023/07/20 10:44:00;;;;;;;7.90;0.83;;;;;;;19.86;71.70;100760.56;5030773;28;20566;-80
2023/07/20 10:46:44;;;;;;;4.10;0.60;;;;;;;19.84;72.45;100762.09;5029062;28;20460;-80
2023/07/20 10:49:12;;;;;;;4.40;0.67;;;;;;;20.02;70.61;100757.00;5024505;28;21023;-79
2023/07/20 10:51:43;;;;;;;4.40;0.70;;;;;;;20.15;69.51;100766.69;5032151;28;20570;-79
2023/07/20 10:54:35;;;;;;;4.10;0.63;;;;;;;20.17;69.46;100769.88;5037881;28;20439;-75
2023/07/20 10:57:23;;;;;;;4.20;0.60;;;;;;;20.19;70.72;100756.56;5026113;28;20562;-81
2023/07/20 10:59:50;;;;;;;4.30;0.60;;;;;;;20.17;68.78;100764.38;5030500;28;20455;-78
2023/07/20 11:02:19;;;;;;;4.10;0.60;;;;;;;20.28;67.45;100757.13;5037297;28;20494;-80
2023/07/20 11:04:47;;;;;;;4.10;0.50;;;;;;;20.37;68.13;100759.66;5032133;28;21025;-79
2023/07/20 11:07:17;;;;;;;4.73;0.67;;;;;;;20.46;65.28;100760.25;5039687;28;20465;-78
2023/07/20 11:09:45;;;;;;;4.10;0.60;;;;;;;20.61;65.25;100756.63;5039799;28;20535;-80
2023/07/20 11:12:14;;;;;;;4.00;0.50;;;;;;;20.90;65.60;100755.19;5036309;28;20566;-81
2023/07/20 11:14:42;;;;;;;4.20;0.60;;;;;;;21.21;61.80;100756.09;5038081;28;20459;-81
2023/07/20 11:17:13;;;;;;;4.27;0.70;;;;;;;21.39;61.08;100746.16;5036505;28;20522;-80
2023/07/20 11:19:40;;;;;;;5.13;0.70;;;;;;;21.59;62.70;100757.06;5036423;28;20458;-80
2023/07/20 11:22:09;;;;;;;4.00;0.40;;;;;;;21.91;59.17;100760.28;5037630;28;20494;-82
2023/07/20 11:24:35;;;;;;;4.00;0.50;;;;;;;22.42;58.46;100763.31;5034429;28;20922;-79
2023/07/20 11:27:04;;;;;;;4.30;0.70;;;;;;;22.93;56.47;100753.59;5036181;28;20467;-82
2023/07/20 11:29:31;;;;;;;4.10;0.60;;;;;;;23.47;54.56;100765.09;5028153;28;20896;-81
2023/07/20 11:31:58;;;;;;;4.20;0.63;;;;;;;23.37;55.10;100761.88;5035143;28;20899;-82
2023/07/20 11:34:25;;;;;;;4.20;0.50;;;;;;;23.02;53.85;100767.09;5040742;28;20471;-83